createdAt,value
2022-11-21T00:00:28.554Z,98596.91
2022-11-21T00:02:58.933Z,98576.69
2022-11-21T00:05:30.426Z,98588.47
2022-11-21T00:08:00.511Z,98589.66
2022-11-21T00:10:29.947Z,98585.72
2022-11-21T00:13:00.180Z,98574.56
2022-11-21T00:15:30.456Z,98573.03
2022-11-21T00:18:00.131Z,98554.34
2022-11-21T00:20:31.075Z,98541.91
2022-11-21T00:23:00.677Z,98529.28
2022-11-21T00:25:30.323Z,98543.50
2022-11-21T00:27:59.870Z,98552.78
2022-11-21T00:30:29.441Z,98555.47
2022-11-21T00:32:59.339Z,98561.53
2022-11-21T00:35:29.147Z,98543.44
2022-11-21T00:38:00.008Z,98507.75
2022-11-21T00:40:29.746Z,98476.09
2022-11-21T00:42:59.286Z,98456.66
2022-11-21T00:45:29.005Z,98445.44
2022-11-21T00:47:58.535Z,98446.66
2022-11-21T00:50:28.058Z,98436.47
2022-11-21T00:52:57.801Z,98449.09
2022-11-21T00:55:28.658Z,98434.00
2022-11-21T00:57:58.336Z,98436.88
2022-11-21T01:00:27.890Z,98429.81
2022-11-21T01:02:57.471Z,98437.06
2022-11-21T01:05:26.996Z,98438.34
2022-11-21T01:07:56.631Z,98439.44
2022-11-21T01:10:26.174Z,98419.13
2022-11-21T01:12:57.565Z,98449.94
2022-11-21T01:15:27.633Z,98457.41
2022-11-21T01:17:57.158Z,98458.19
2022-11-21T01:20:26.793Z,98444.50
2022-11-21T01:22:56.279Z,98432.50
2022-11-21T01:25:25.854Z,98435.16
2022-11-21T01:27:55.346Z,98445.84
2022-11-21T01:30:26.212Z,98452.00
2022-11-21T01:32:55.737Z,98446.75
2022-11-21T01:35:25.863Z,98441.16
2022-11-21T01:37:55.350Z,98430.41
2022-11-21T01:40:24.868Z,98436.28
2022-11-21T01:42:55.098Z,98422.44
2022-11-21T01:45:42.936Z,98416.94
2022-11-21T01:48:13.933Z,98406.78
2022-11-21T01:50:43.691Z,98434.38
2022-11-21T01:53:13.348Z,98430.75
2022-11-21T01:55:42.983Z,98406.75
2022-11-21T01:58:13.085Z,98413.69
2022-11-21T02:00:43.965Z,98383.28
2022-11-21T02:03:16.735Z,98371.03
2022-11-21T02:05:46.573Z,98356.34
2022-11-21T02:08:18.950Z,98362.75
2022-11-21T02:10:51.010Z,98373.72
2022-11-21T02:13:22.773Z,98376.22
2022-11-21T02:15:52.750Z,98360.88
2022-11-21T02:18:23.712Z,98374.31
2022-11-21T02:20:56.257Z,98387.97
2022-11-21T02:23:29.280Z,98390.31
2022-11-21T02:26:00.776Z,98381.59
2022-11-21T02:28:31.663Z,98386.56
2022-11-21T02:31:01.183Z,98397.75
2022-11-21T02:33:30.658Z,98403.13
2022-11-21T02:36:00.801Z,98402.31
2022-11-21T02:38:31.786Z,98396.09
2022-11-21T02:41:07.892Z,98391.75
2022-11-21T02:43:39.705Z,98399.41
2022-11-21T02:46:09.319Z,98408.50
2022-11-21T02:48:39.279Z,98405.16
2022-11-21T02:51:08.868Z,98403.84
2022-11-21T02:53:38.320Z,98398.66
2022-11-21T02:56:09.220Z,98390.19
2022-11-21T02:58:39.372Z,98389.09
2022-11-21T03:01:08.968Z,98396.09
2022-11-21T03:03:38.472Z,98392.34
2022-11-21T03:06:07.908Z,98400.19
2022-11-21T03:08:37.461Z,98409.47
2022-11-21T03:11:06.941Z,98415.66
2022-11-21T03:13:38.439Z,98421.03
2022-11-21T03:16:08.424Z,98416.06
2022-11-21T03:18:38.099Z,98416.44
2022-11-21T03:21:07.615Z,98410.44
2022-11-21T03:23:37.145Z,98408.78
2022-11-21T03:26:06.615Z,98405.44
2022-11-21T03:28:36.197Z,98398.63
2022-11-21T03:31:07.177Z,98391.97
2022-11-21T03:33:36.860Z,98405.34
2022-11-21T03:36:06.468Z,98393.09
2022-11-21T03:38:36.062Z,98400.34
2022-11-21T03:41:26.633Z,98396.38
2022-11-21T03:43:56.267Z,98392.88
2022-11-21T03:46:27.502Z,98387.31
2022-11-21T03:48:57.130Z,98393.31
2022-11-21T03:51:26.916Z,98378.47
2022-11-21T03:53:56.561Z,98371.88
2022-11-21T03:56:26.375Z,98374.94
2022-11-21T03:58:55.934Z,98368.97
2022-11-21T04:01:30.251Z,98363.59
2022-11-21T04:04:02.207Z,98349.75
2022-11-21T04:06:32.307Z,98345.13
2022-11-21T04:09:01.744Z,98340.81
2022-11-21T04:11:31.304Z,98342.50
2022-11-21T04:14:01.344Z,98342.69
2022-11-21T04:16:32.753Z,98341.22
2022-11-21T04:19:02.255Z,98347.22
2022-11-21T04:21:31.789Z,98348.75
2022-11-21T04:24:01.270Z,98339.16
2022-11-21T04:26:30.891Z,98355.28
2022-11-21T04:29:00.616Z,98351.44
2022-11-21T04:31:30.129Z,98349.97
2022-11-21T04:34:01.304Z,98354.72
2022-11-21T04:36:31.072Z,98357.97
2022-11-21T04:39:00.792Z,98348.88
2022-11-21T04:41:30.500Z,98351.50
2022-11-21T04:44:00.052Z,98342.59
2022-11-21T04:46:29.592Z,98331.78
2022-11-21T04:48:59.467Z,98328.91
2022-11-21T04:51:30.389Z,98315.28
2022-11-21T04:54:00.087Z,98312.84
2022-11-21T04:56:29.692Z,98330.13
2022-11-21T04:58:59.311Z,98327.03
2022-11-21T05:01:28.918Z,98329.59
2022-11-21T05:03:58.587Z,98322.53
2022-11-21T05:06:28.099Z,98322.72
2022-11-21T05:08:58.993Z,98321.03
2022-11-21T05:11:45.769Z,98315.72
2022-11-21T05:14:15.889Z,98309.69
2022-11-21T05:16:46.078Z,98290.88
2022-11-21T05:19:15.779Z,98288.53
2022-11-21T05:21:45.489Z,98289.19
2022-11-21T05:24:16.576Z,98289.41
2022-11-21T05:26:46.096Z,98281.34
2022-11-21T05:29:15.612Z,98289.19
2022-11-21T05:31:45.209Z,98291.63
2022-11-21T05:34:14.708Z,98304.84
2022-11-21T05:36:44.263Z,98298.03
2022-11-21T05:39:14.636Z,98303.03
2022-11-21T05:41:45.572Z,98307.75
2022-11-21T05:44:14.231Z,98310.63
2022-11-21T05:46:43.739Z,98304.44
2022-11-21T05:49:13.497Z,98322.22
2022-11-21T05:51:43.063Z,98316.06
2022-11-21T05:54:13.847Z,98314.84
2022-11-21T05:56:43.557Z,98326.41
2022-11-21T05:59:14.679Z,98332.63
2022-11-21T06:02:01.292Z,98340.81
2022-11-21T06:04:31.171Z,98353.00
2022-11-21T06:07:01.002Z,98339.34
2022-11-21T06:09:30.650Z,98357.97
2022-11-21T06:12:00.627Z,98350.16
2022-11-21T06:14:31.524Z,98353.47
2022-11-21T06:17:01.084Z,98358.50
2022-11-21T06:19:30.552Z,98343.41
2022-11-21T06:22:00.198Z,98355.19
2022-11-21T06:24:29.846Z,98355.22
2022-11-21T06:27:00.096Z,98356.91
2022-11-21T06:29:31.068Z,98363.75
2022-11-21T06:32:00.616Z,98355.09
2022-11-21T06:34:30.434Z,98376.84
2022-11-21T06:37:00.612Z,98367.34
2022-11-21T06:39:30.228Z,98385.59
2022-11-21T06:41:59.772Z,98369.72
2022-11-21T06:44:29.629Z,98387.31
2022-11-21T06:47:01.101Z,98377.03
2022-11-21T06:49:30.720Z,98392.91
2022-11-21T06:52:00.743Z,98400.00
2022-11-21T06:54:30.645Z,98396.88
2022-11-21T06:57:00.315Z,98394.22
2022-11-21T06:59:29.982Z,98386.38
2022-11-21T07:01:59.510Z,98376.88
2022-11-21T07:04:30.704Z,98386.47
2022-11-21T07:07:00.495Z,98396.38
2022-11-21T07:09:34.151Z,98397.81
2022-11-21T07:12:18.550Z,98400.28
2022-11-21T07:14:49.368Z,98407.13
2022-11-21T07:17:19.602Z,98400.75
2022-11-21T07:19:50.649Z,98414.00
2022-11-21T07:22:20.349Z,98416.34
2022-11-21T07:24:49.852Z,98392.94
2022-11-21T07:27:19.574Z,98401.03
2022-11-21T07:29:49.539Z,98387.59
2022-11-21T07:32:19.297Z,98381.44
2022-11-21T07:34:50.197Z,98362.81
2022-11-21T07:37:19.780Z,98365.72
2022-11-21T07:39:49.484Z,98370.50
2022-11-21T07:42:19.053Z,98361.41
2022-11-21T07:44:48.537Z,98353.31
2022-11-21T07:47:18.092Z,98351.25
2022-11-21T07:49:47.628Z,98352.06
2022-11-21T07:52:18.544Z,98353.75
2022-11-21T07:54:48.016Z,98347.09
2022-11-21T07:57:17.478Z,98345.00
2022-11-21T07:59:47.096Z,98349.94
2022-11-21T08:02:19.650Z,98345.56
2022-11-21T08:04:49.340Z,98327.94
2022-11-21T08:07:21.463Z,98347.00
2022-11-21T08:09:51.137Z,98354.03
2022-11-21T08:12:21.357Z,98356.66
2022-11-21T08:14:51.387Z,98373.22
2022-11-21T08:17:21.413Z,98377.59
2022-11-21T08:19:51.217Z,98382.94
2022-11-21T08:22:22.536Z,98386.22
2022-11-21T08:24:53.955Z,98397.22
2022-11-21T08:27:24.461Z,98403.59
2022-11-21T08:29:53.975Z,98412.78
2022-11-21T08:32:23.811Z,98408.16
2022-11-21T08:34:53.495Z,98415.63
2022-11-21T08:37:24.576Z,98426.44
2022-11-21T08:39:54.988Z,98419.78
2022-11-21T08:42:24.790Z,98416.00
2022-11-21T08:44:54.558Z,98412.84
2022-11-21T08:47:24.352Z,98406.19
2022-11-21T08:49:53.872Z,98412.81
2022-11-21T08:52:24.749Z,98410.47
2022-11-21T08:54:55.626Z,98406.09
2022-11-21T08:57:25.248Z,98402.88
2022-11-21T08:59:56.186Z,98409.69
2022-11-21T09:02:25.902Z,98394.50
2022-11-21T09:04:55.557Z,98402.56
2022-11-21T09:07:26.613Z,98398.41
2022-11-21T09:09:56.298Z,98386.13
2022-11-21T09:12:26.531Z,98396.31
2022-11-21T09:15:14.009Z,98391.41
2022-11-21T09:18:01.483Z,98395.19
2022-11-21T09:20:31.337Z,98400.19
2022-11-21T09:23:06.191Z,98401.88
2022-11-21T09:25:35.806Z,98409.44
2022-11-21T09:28:15.428Z,98410.53
2022-11-21T09:30:45.367Z,98416.41
2022-11-21T09:33:16.857Z,98404.78
2022-11-21T09:35:47.965Z,98406.25
2022-11-21T09:38:23.867Z,98396.94
2022-11-21T09:40:57.929Z,98393.81
2022-11-21T09:43:36.316Z,98393.44
2022-11-21T09:46:10.762Z,98396.72
2022-11-21T09:48:47.692Z,98397.16
2022-11-21T09:51:19.242Z,98405.91
2022-11-21T09:53:56.275Z,98401.16
2022-11-21T09:56:27.464Z,98386.84
2022-11-21T09:59:07.232Z,98392.25
2022-11-21T10:01:37.572Z,98389.13
2022-11-21T10:04:07.077Z,98394.69
2022-11-21T10:06:40.456Z,98388.91
2022-11-21T10:09:18.490Z,98379.56
2022-11-21T10:12:16.899Z,98387.88
2022-11-21T10:14:51.610Z,98386.00
2022-11-21T10:17:25.846Z,98379.78
2022-11-21T10:20:10.808Z,98376.88
2022-11-21T10:22:49.341Z,98377.28
2022-11-21T10:25:26.870Z,98384.16
2022-11-21T10:28:01.668Z,98373.56
2022-11-21T10:30:31.649Z,98367.31
2022-11-21T10:33:03.617Z,98368.16
2022-11-21T10:35:37.831Z,98361.69
2022-11-21T10:38:17.280Z,98364.00
2022-11-21T10:40:50.223Z,98357.97
2022-11-21T10:43:42.673Z,98359.00
2022-11-21T10:46:12.252Z,98352.97
2022-11-21T10:48:41.865Z,98350.88
2022-11-21T10:51:23.942Z,98356.28
2022-11-21T10:54:21.426Z,98347.75
2022-11-21T10:56:53.406Z,98347.53
2022-11-21T10:59:30.143Z,98357.25
2022-11-21T11:02:02.342Z,98355.63
2022-11-21T11:04:41.559Z,98363.28
2022-11-21T11:07:23.626Z,98369.13
2022-11-21T11:09:53.679Z,98364.97
2022-11-21T11:12:49.919Z,98362.28
2022-11-21T11:15:21.057Z,98350.06
2022-11-21T11:17:52.342Z,98361.47
2022-11-21T11:20:39.605Z,98360.25
2022-11-21T11:23:24.586Z,98353.16
2022-11-21T11:25:55.017Z,98351.56
2022-11-21T11:28:26.790Z,98358.19
2022-11-21T11:30:56.854Z,98356.97
2022-11-21T11:33:33.658Z,98356.53
2022-11-21T11:36:10.543Z,98361.53
2022-11-21T11:38:44.136Z,98348.25
2022-11-21T11:41:19.851Z,98355.72
2022-11-21T11:44:12.206Z,98358.22
2022-11-21T11:47:03.511Z,98361.34
2022-11-21T11:49:58.932Z,98366.53
2022-11-21T11:52:30.517Z,98364.63
2022-11-21T11:55:03.372Z,98365.72
2022-11-21T11:57:34.023Z,98359.50
2022-11-21T12:00:10.177Z,98364.06
2022-11-21T12:02:47.092Z,98360.72
2022-11-21T12:05:20.810Z,98360.75
2022-11-21T12:11:00.475Z,98362.84
2022-11-21T12:13:32.601Z,98369.69
2022-11-21T12:16:11.983Z,98369.09
2022-11-21T12:18:49.619Z,98369.50
2022-11-21T12:21:19.865Z,98376.97
2022-11-21T12:23:50.735Z,98384.00
2022-11-21T12:26:29.299Z,98389.41
2022-11-21T12:29:08.524Z,98396.44
2022-11-21T12:31:48.198Z,98399.91
2022-11-21T12:34:23.776Z,98412.94
2022-11-21T12:36:58.323Z,98416.66
2022-11-21T12:39:45.427Z,98427.78
2022-11-21T12:42:39.138Z,98410.94
2022-11-21T12:45:27.258Z,98405.16
2022-11-21T12:48:28.968Z,98407.78
2022-11-21T12:51:25.008Z,98407.75
2022-11-21T12:54:15.328Z,98408.56
2022-11-21T12:56:49.603Z,98406.88
2022-11-21T12:59:20.853Z,98405.19
2022-11-21T13:01:55.740Z,98408.69
2022-11-21T13:04:29.985Z,98409.25
2022-11-21T13:07:00.481Z,98414.00
2022-11-21T13:09:33.589Z,98421.25
2022-11-21T13:12:14.842Z,98423.75
2022-11-21T13:14:48.273Z,98419.41
2022-11-21T13:17:24.237Z,98425.41
2022-11-21T13:19:57.100Z,98425.41
2022-11-21T13:22:44.972Z,98422.09
2022-11-21T13:25:15.129Z,98426.66
2022-11-21T13:27:44.830Z,98423.56
2022-11-21T13:30:21.944Z,98417.56
2022-11-21T13:32:52.641Z,98415.34
2022-11-21T13:35:40.583Z,98404.63
2022-11-21T13:38:13.165Z,98414.16
2022-11-21T13:41:04.231Z,98415.59
2022-11-21T13:43:34.547Z,98410.78
2022-11-21T13:46:04.911Z,98406.00
2022-11-21T13:48:47.551Z,98422.75
2022-11-21T13:51:31.997Z,98426.47
2022-11-21T13:54:11.246Z,98424.19
2022-11-21T13:56:47.173Z,98432.03
2022-11-21T13:59:27.967Z,98447.50
2022-11-21T14:02:12.791Z,98451.97
2022-11-21T14:04:58.306Z,98449.13
2022-11-21T14:07:30.507Z,98448.25
2022-11-21T14:10:02.683Z,98457.50
2022-11-21T14:12:38.443Z,98452.25
2022-11-21T14:15:19.200Z,98456.16
2022-11-21T14:17:49.832Z,98461.66
2022-11-21T14:20:21.756Z,98468.44
2022-11-21T14:22:55.983Z,98478.09
2022-11-21T14:25:30.626Z,98484.69
2022-11-21T14:28:00.326Z,98482.75
2022-11-21T14:30:31.313Z,98480.06
2022-11-21T14:33:15.666Z,98481.84
2022-11-21T14:35:48.871Z,98483.19
2022-11-21T14:38:20.622Z,98482.53
2022-11-21T14:40:51.875Z,98487.84
2022-11-21T14:43:30.441Z,98481.56
2022-11-21T14:46:00.979Z,98481.56
2022-11-21T14:48:31.223Z,98491.66
2022-11-21T14:51:01.859Z,98485.47
2022-11-21T14:53:33.135Z,98480.53
2022-11-21T14:56:04.039Z,98491.19
2022-11-21T14:58:33.545Z,98495.91
2022-11-21T15:01:04.188Z,98493.97
2022-11-21T15:03:34.068Z,98495.84
2022-11-21T15:06:06.999Z,98495.47
2022-11-21T15:11:34.080Z,98501.84
2022-11-21T15:14:16.488Z,98512.59
2022-11-21T15:16:48.107Z,98517.84
2022-11-21T15:19:21.937Z,98523.13
2022-11-21T15:21:52.290Z,98516.84
2022-11-21T15:24:30.191Z,98522.19
2022-11-21T15:27:01.403Z,98532.50
2022-11-21T15:29:31.466Z,98530.50
2022-11-21T15:32:07.613Z,98534.69
2022-11-21T15:34:37.396Z,98539.28
2022-11-21T15:37:13.391Z,98539.47
2022-11-21T15:39:44.085Z,98541.03
2022-11-21T15:42:30.474Z,98542.03
2022-11-21T15:45:00.664Z,98545.91
2022-11-21T15:47:30.308Z,98549.75
2022-11-21T15:50:00.457Z,98555.03
2022-11-21T15:52:30.429Z,98561.28
2022-11-21T15:54:59.984Z,98561.34
2022-11-21T15:57:30.934Z,98568.72
2022-11-21T16:00:00.980Z,98580.03
2022-11-21T16:02:30.728Z,98577.06
2022-11-21T16:05:00.491Z,98568.94
2022-11-21T16:07:30.219Z,98564.75
2022-11-21T16:10:01.131Z,98565.13
2022-11-21T16:12:32.728Z,98572.03
2022-11-21T16:15:02.973Z,98575.06
2022-11-21T16:17:33.101Z,98586.31
2022-11-21T16:20:02.685Z,98579.47
2022-11-21T16:22:32.571Z,98586.31
2022-11-21T16:25:02.413Z,98592.41
2022-11-21T16:27:34.195Z,98597.28
2022-11-21T16:30:04.125Z,98592.72
2022-11-21T16:32:34.177Z,98598.78
2022-11-21T16:35:03.770Z,98598.81
2022-11-21T16:37:33.319Z,98606.13
2022-11-21T16:40:02.893Z,98606.84
2022-11-21T16:42:32.421Z,98602.81
2022-11-21T16:45:03.359Z,98623.06
2022-11-21T16:47:32.893Z,98627.94
2022-11-21T16:50:02.673Z,98631.78
2022-11-21T16:52:33.860Z,98631.97
2022-11-21T16:55:04.310Z,98632.81
2022-11-21T16:57:35.228Z,98630.63
2022-11-21T17:00:07.167Z,98631.66
2022-11-21T17:02:38.073Z,98618.28
2022-11-21T17:05:08.402Z,98621.44
2022-11-21T17:07:41.508Z,98633.81
2022-11-21T17:10:12.503Z,98626.97
2022-11-21T17:12:43.304Z,98631.31
2022-11-21T17:15:15.895Z,98636.16
2022-11-21T17:17:45.720Z,98635.97
2022-11-21T17:20:15.209Z,98635.50
2022-11-21T17:22:44.755Z,98631.28
2022-11-21T17:25:14.326Z,98629.16
2022-11-21T17:27:43.910Z,98640.34
2022-11-21T17:30:15.973Z,98626.13
2022-11-21T17:32:47.059Z,98623.97
2022-11-21T17:35:16.830Z,98628.97
2022-11-21T17:37:47.060Z,98627.63
2022-11-21T17:40:16.745Z,98637.66
2022-11-21T17:42:47.119Z,98629.81
2022-11-21T17:45:17.162Z,98640.19
2022-11-21T17:47:48.072Z,98639.00
2022-11-21T17:50:17.972Z,98636.66
2022-11-21T17:52:47.848Z,98639.03
2022-11-21T17:55:17.409Z,98633.50
2022-11-21T17:57:47.673Z,98629.31
2022-11-21T18:00:17.393Z,98633.50
2022-11-21T18:02:48.567Z,98633.16
2022-11-21T18:05:18.418Z,98628.47
2022-11-21T18:07:48.688Z,98631.66
2022-11-21T18:10:41.498Z,98634.31
2022-11-21T18:13:09.498Z,98652.69
2022-11-21T18:15:39.034Z,98653.03
2022-11-21T18:18:10.026Z,98660.25
2022-11-21T18:20:39.706Z,98667.09
2022-11-21T18:23:09.612Z,98676.63
2022-11-21T18:25:39.446Z,98666.25
2022-11-21T18:28:10.345Z,98661.41
2022-11-21T18:30:40.042Z,98664.41
2022-11-21T18:33:14.659Z,98674.09
2022-11-21T18:35:48.487Z,98671.09
2022-11-21T18:38:46.087Z,98664.06
2022-11-21T18:41:08.480Z,98658.53
2022-11-21T18:43:38.198Z,98668.88
2022-11-21T18:46:08.579Z,98672.88
2022-11-21T18:49:01.546Z,98670.72
2022-11-21T18:51:30.065Z,98677.53
2022-11-21T18:54:01.187Z,98684.75
2022-11-21T18:56:30.913Z,98678.72
2022-11-21T18:59:00.909Z,98684.75
2022-11-21T19:01:32.072Z,98685.53
2022-11-21T19:04:03.672Z,98683.53
2022-11-21T19:06:33.729Z,98693.06
2022-11-21T19:09:03.657Z,98688.22
2022-11-21T19:11:33.512Z,98699.22
2022-11-21T19:14:03.649Z,98710.38
2022-11-21T19:16:35.096Z,98707.38
2022-11-21T19:21:57.973Z,98710.03
2022-11-21T19:24:27.934Z,98716.72
2022-11-21T19:26:57.886Z,98709.34
2022-11-21T19:29:27.830Z,98719.31
2022-11-21T19:31:57.870Z,98722.38
2022-11-21T19:34:29.037Z,98729.88
2022-11-21T19:36:58.979Z,98727.38
2022-11-21T19:39:30.587Z,98730.84
2022-11-21T19:42:03.085Z,98736.38
2022-11-21T19:44:34.007Z,98737.84
2022-11-21T19:47:04.005Z,98744.34
2022-11-21T19:49:37.597Z,98749.81
2022-11-21T19:52:07.442Z,98754.84
2022-11-21T19:54:37.180Z,98763.75
2022-11-21T19:57:12.426Z,98764.06
2022-11-21T19:59:46.654Z,98762.22
2022-11-21T20:02:18.109Z,98765.38
2022-11-21T20:04:49.260Z,98769.19
2022-11-21T20:07:18.969Z,98768.19
2022-11-21T20:09:48.870Z,98769.84
2022-11-21T20:12:19.179Z,98776.81
2022-11-21T20:14:49.400Z,98783.03
2022-11-21T20:17:19.274Z,98778.09
2022-11-21T20:19:51.936Z,98778.75
2022-11-21T20:22:21.720Z,98774.63
2022-11-21T20:24:52.065Z,98780.75
2022-11-21T20:27:21.879Z,98778.09
2022-11-21T20:29:51.647Z,98780.19
2022-11-21T20:32:21.354Z,98789.81
2022-11-21T20:34:52.528Z,98783.03
2022-11-21T20:37:22.474Z,98782.47
2022-11-21T20:39:52.096Z,98781.09
2022-11-21T20:42:21.665Z,98793.94
2022-11-21T20:46:01.027Z,98794.38
2022-11-21T20:47:40.929Z,98795.50
2022-11-21T20:50:21.565Z,98802.84
2022-11-21T20:55:51.191Z,98813.75
2022-11-21T20:58:20.876Z,98814.38
2022-11-21T21:00:50.536Z,98808.22
2022-11-21T21:03:20.172Z,98805.47
2022-11-21T21:05:54.375Z,98808.13
2022-11-21T21:08:24.006Z,98810.09
2022-11-21T21:11:05.853Z,98810.97
2022-11-21T21:13:36.345Z,98804.38
2022-11-21T21:16:06.790Z,98807.13
2022-11-21T21:18:36.915Z,98800.88
2022-11-21T21:21:16.902Z,98809.59
2022-11-21T21:23:48.492Z,98806.66
2022-11-21T21:26:18.963Z,98810.31
2022-11-21T21:28:48.979Z,98801.19
2022-11-21T21:31:19.566Z,98812.78
2022-11-21T21:33:49.218Z,98823.19
2022-11-21T21:36:20.776Z,98820.38
2022-11-21T21:38:51.281Z,98823.59
2022-11-21T21:41:21.267Z,98828.38
2022-11-21T21:43:50.997Z,98833.19
2022-11-21T21:46:21.669Z,98828.78
2022-11-21T21:48:54.692Z,98834.25
2022-11-21T21:51:26.616Z,98839.19
2022-11-21T21:53:57.044Z,98839.94
2022-11-21T21:56:27.781Z,98838.94
2022-11-21T21:58:57.933Z,98828.28
2022-11-21T22:01:29.908Z,98843.19
2022-11-21T22:04:00.760Z,98849.44
2022-11-21T22:06:33.420Z,98848.47
2022-11-21T22:09:03.356Z,98861.13
2022-11-21T22:11:34.048Z,98864.47
2022-11-21T22:14:05.240Z,98867.16
2022-11-21T22:16:35.477Z,98866.97
2022-11-21T22:19:05.046Z,98872.09
2022-11-21T22:21:36.891Z,98866.75
2022-11-21T22:24:27.566Z,98871.19
2022-11-21T22:26:57.741Z,98871.69
2022-11-21T22:29:27.331Z,98870.09
2022-11-21T22:31:56.892Z,98879.06
2022-11-21T22:34:26.714Z,98878.78
2022-11-21T22:36:57.732Z,98869.41
2022-11-21T22:39:27.412Z,98875.28
2022-11-21T22:41:59.850Z,98870.53
2022-11-21T22:44:29.926Z,98874.34
2022-11-21T22:46:59.756Z,98877.72
2022-11-21T22:49:29.476Z,98881.06
2022-11-21T22:52:00.387Z,98876.31
2022-11-21T22:54:30.925Z,98875.84
2022-11-21T22:57:00.928Z,98877.56
2022-11-21T22:59:30.512Z,98877.25
2022-11-21T23:02:00.172Z,98878.53
2022-11-21T23:04:29.793Z,98884.81
2022-11-21T23:07:00.880Z,98880.81
2022-11-21T23:09:30.939Z,98877.59
2022-11-21T23:12:01.868Z,98883.41
2022-11-21T23:14:32.160Z,98878.56
2022-11-21T23:17:02.038Z,98870.88
2022-11-21T23:19:31.789Z,98881.38
2022-11-21T23:22:02.895Z,98883.56
2022-11-21T23:24:32.749Z,98879.34
2022-11-21T23:27:02.223Z,98873.34
2022-11-21T23:29:32.090Z,98875.72
2022-11-21T23:32:01.804Z,98872.91
2022-11-21T23:34:31.297Z,98876.16
2022-11-21T23:37:02.263Z,98880.50
2022-11-21T23:39:32.152Z,98870.16
2022-11-21T23:42:02.133Z,98875.19
2022-11-21T23:44:31.658Z,98881.63
2022-11-21T23:47:01.180Z,98887.63
2022-11-21T23:49:31.052Z,98883.88
2022-11-21T23:52:02.427Z,98890.31
2022-11-21T23:54:32.245Z,98899.84
2022-11-21T23:57:01.788Z,98903.91
2022-11-21T23:59:31.481Z,98904.78
